M/V Saviour — WDD5064 — position and weather

sailwx.info

Track history (hours):
 
Tides and Currents Weather Stations Pressure Air Temp Water Temp Dewpoint Dewpoint Depression Visibility Wind Speed Wind Dir Waves Ship Positions

M/V Saviour

Owner: Marquette Transportation Company Gulf-Inland, LLC, Jefferson, LA. More information available from US FCC via Universal Licensing System and Coast Guard Vessel Documentation Center.

Last reported at 2018-May-20 15:30 UTC. Time now 2018-May-20 15:29 UTC.
Position N 29°42' W 094°09'.

Length 24 m; draft 2.7 m.

Type: . MMSI: 367151460.

Date/timePositionNaut miles runAvg speedWind from/ knotsBaromVisibWave heightAir tempDewpointWater temp
2018-May-20 15:30N 29°42' W 094°09'2 4.2
2018-May-20 15:00N 29°41' W 094°12'2 4.4
2018-May-20 14:30N 29°40' W 094°14'2 4.4
2018-May-20 14:01N 29°39' W 094°16'2 4.5
2018-May-20 13:29N 29°38' W 094°19'3 4.4
2018-May-20 12:55N 29°37' W 094°21'2 4.5
2018-May-20 12:29N 29°36' W 094°23'2 2.4
2018-May-20 11:43N 29°35' W 094°25'13 3.9
2018-May-20 08:18N 29°28' W 094°38'2 4.9
2018-May-20 07:57N 29°28' W 094°40'6 4.0
2018-May-20 06:27N 29°24' W 094°45'2 3.8
2018-May-20 06:00N 29°23' W 094°47'2 4.0
2018-May-20 05:30N 29°23' W 094°49'3 7.0
2018-May-20 05:00N 29°27' W 094°50'3 6.4
2018-May-20 04:30N 29°29' W 094°52'3 5.9
2018-May-20 04:00N 29°32' W 094°54'3 5.6
2018-May-20 03:30N 29°34' W 094°55'3 5.1
2018-May-20 03:00N 29°36' W 094°57'2 4.9
2018-May-20 02:30N 29°39' W 094°58'3 5.0
2018-May-20 02:00N 29°41' W 094°59'2 4.6
2018-May-20 01:30N 29°42' W 095°01'2 4.0
2018-May-20 00:57N 29°44' W 095°03'2 0.1
2018-May-19 11:43N 29°45' W 095°04'1 6.1
2018-May-19 11:28N 29°44' W 095°03'2 4.8
2018-May-19 11:00N 29°43' W 095°01'3 5.5
2018-May-19 10:30N 29°41' W 094°59'3 5.9
2018-May-19 10:01N 29°38' W 094°58'3 5.8
2018-May-19 09:30N 29°35' W 094°56'3 6.6
2018-May-19 09:00N 29°33' W 094°54'3 6.0
2018-May-19 08:29N 29°30' W 094°52'4 6.3
2018-May-19 07:54N 29°27' W 094°50'2 6.4
2018-May-19 07:31N 29°24' W 094°49'3 5.5
2018-May-19 07:00N 29°22' W 094°47'7 6.5
2018-May-19 05:56N 29°27' W 094°41'3 5.8
2018-May-19 05:27N 29°28' W 094°38'2 5.1
2018-May-19 04:58N 29°29' W 094°36'3 6.3
2018-May-19 04:30N 29°30' W 094°33'4 6.4
2018-May-19 03:51N 29°32' W 094°29'2 4.6
2018-May-19 03:29N 29°34' W 094°27'2 4.5
2018-May-19 02:57N 29°35' W 094°25'1 3.1
2018-May-19 02:30N 29°36' W 094°23'0 0.7
2018-May-19 01:59N 29°36' W 094°23'1 2.1
2018-May-19 01:28N 29°36' W 094°22'1 3.0
2018-May-19 01:00N 29°37' W 094°21'2 3.8
2018-May-19 00:29N 29°38' W 094°19'2 4.4
2018-May-19 00:00N 29°39' W 094°17'2 3.6
2018-May-18 23:31N 29°40' W 094°15'2 3.5
2018-May-18 23:00N 29°40' W 094°13'2 4.7
2018-May-18 22:30N 29°41' W 094°10'3 6.0
2018-May-18 22:00N 29°43' W 094°07'3 5.9
2018-May-18 21:30N 29°45' W 094°05'3 5.9
2018-May-18 21:00N 29°47' W 094°02'3 6.1
2018-May-18 20:31N 29°49' W 093°60'3 6.1
2018-May-18 20:00N 29°51' W 093°57'3 6.0
2018-May-18 19:31N 29°53' W 093°55'3 6.1
2018-May-18 19:00N 29°55' W 093°53'3 6.6
2018-May-18 18:30N 29°58' W 093°51'3 6.2
2018-May-18 18:00N 29°59' W 093°48'1 2.3
2018-May-18 17:30N 29°60' W 093°46'3 6.0
2018-May-18 16:59N 30°02' W 093°44'3 5.5
2018-May-18 16:30N 30°04' W 093°41'3 5.7
2018-May-18 16:01N 30°04' W 093°38'3 6.3
2018-May-18 15:28N 30°04' W 093°34'2 5.1
2018-May-18 15:01N 30°04' W 093°31'3 6.7
2018-May-18 14:30N 30°04' W 093°28'3 6.9
2018-May-18 14:00N 30°04' W 093°24'1 2.6
2018-May-18 13:30N 30°04' W 093°22'0 0.6
2018-May-18 13:01N 30°04' W 093°22'0 0.8
2018-May-18 12:30N 30°04' W 093°22'0 0.8
2018-May-18 12:00N 30°04' W 093°22'0 0.1
2018-May-18 11:30N 30°04' W 093°22'0 0.6
2018-May-18 11:00N 30°04' W 093°22'0 0.6
2018-May-18 10:30N 30°04' W 093°22'1 2.2
2018-May-18 10:00N 30°04' W 093°21'2 3.4
2018-May-18 09:31N 30°06' W 093°19'1 2.8
2018-May-18 09:00N 30°05' W 093°18'1 1.1
2018-May-18 08:31N 30°05' W 093°17'1 2.7
2018-May-18 08:01N 30°04' W 093°16'0 0.0
2018-May-18 07:31N 30°04' W 093°16'0 0.0
2018-May-18 07:00N 30°04' W 093°16'0 0.0
2018-May-18 06:30N 30°04' W 093°16'0 0.0
2018-May-18 06:00N 30°04' W 093°16'0 0.0
2018-May-18 05:30N 30°04' W 093°16'1 1.4
2018-May-18 05:00N 30°04' W 093°16'1 2.8
2018-May-18 04:31N 30°02' W 093°15'2 3.4
2018-May-18 04:00N 30°01' W 093°14'2 3.5
2018-May-18 03:28N 29°59' W 093°13'0 0.4
2018-May-18 03:00N 29°59' W 093°13'2 3.6
2018-May-18 02:30N 29°58' W 093°11'2 4.2
2018-May-18 02:00N 29°56' W 093°10'2 4.1
2018-May-18 01:29N 29°56' W 093°07'2 4.1
2018-May-18 01:00N 29°56' W 093°05'2 4.3
2018-May-18 00:30N 29°56' W 093°03'54 3.8
2018-May-17 10:19N 29°50' W 092°00'2 4.4
2018-May-17 09:47N 29°50' W 091°58'7 3.9
2018-May-17 07:56N 29°49' W 091°50'2 4.4
2018-May-17 07:29N 29°47' W 091°49'3 3.7
2018-May-17 06:41N 29°46' W 091°46'10 4.5
2018-May-17 04:26N 29°45' W 091°35'  
2018-May-14 09:18N 29°40' W 091°26'1 2.7
2018-May-14 09:00N 29°40' W 091°27'3 2.6
2018-May-14 07:52N 29°41' W 091°30'1 2.9
2018-May-14 07:23N 29°42' W 091°31'1 2.5
2018-May-14 07:01N 29°43' W 091°32'79 2.9
2018-May-13 03:49N 29°56' W 093°02'1 4.0
2018-May-13 03:30N 29°56' W 093°03'2 3.9
2018-May-13 03:00N 29°56' W 093°05'2 3.7
2018-May-13 02:30N 29°56' W 093°08'2 3.8
2018-May-13 02:00N 29°56' W 093°10'2 3.9
2018-May-13 01:30N 29°58' W 093°11'2 3.9
2018-May-13 01:00N 29°59' W 093°13'2 3.6
2018-May-13 00:30N 30°01' W 093°14'2 3.6
2018-May-13 00:00N 30°02' W 093°15'2 3.6
2018-May-12 23:30N 30°04' W 093°16'2 4.0
2018-May-12 23:00N 30°05' W 093°18'1 1.1
2018-May-12 22:30N 30°06' W 093°18'1 2.0
2018-May-12 22:00N 30°06' W 093°19'2 3.5
2018-May-12 21:30N 30°04' W 093°20'1 2.1
2018-May-12 21:01N 30°04' W 093°21'0 0.1
2018-May-12 20:30N 30°04' W 093°21'0 0.0
2018-May-12 20:01N 30°04' W 093°21'0 0.0
2018-May-12 19:30N 30°04' W 093°21'0 0.0
2018-May-12 19:01N 30°04' W 093°21'0 0.0
2018-May-12 18:30N 30°04' W 093°21'0 0.0
2018-May-12 18:01N 30°04' W 093°21'0 0.0
2018-May-12 17:30N 30°04' W 093°21'0 0.3
2018-May-12 17:01N 30°04' W 093°21'2 3.9
2018-May-12 16:30N 30°04' W 093°24'2 3.9
2018-May-12 16:00N 30°04' W 093°26'2 3.5
2018-May-12 15:31N 30°04' W 093°28'2 3.5
2018-May-12 15:00N 30°04' W 093°30'2 3.8
2018-May-12 14:30N 30°04' W 093°32'2 3.5
2018-May-12 13:58N 30°04' W 093°34'2 4.1
2018-May-12 13:29N 30°04' W 093°37'2 5.0
2018-May-12 13:00N 30°04' W 093°39'3 5.1
2018-May-12 12:30N 30°03' W 093°42'2 4.8
2018-May-12 12:00N 30°02' W 093°44'3 5.5
2018-May-12 11:31N 29°60' W 093°47'3 5.7
2018-May-12 11:00N 29°59' W 093°50'2 4.7
2018-May-12 10:30N 29°57' W 093°52'3 5.7
2018-May-12 10:01N 29°55' W 093°53'3 5.8
2018-May-12 09:30N 29°53' W 093°56'3 5.7
2018-May-12 09:00N 29°50' W 093°57'2 4.2
2018-May-12 08:30N 29°49' W 093°59'2 4.1
2018-May-12 08:01N 29°47' W 094°01'2 3.9
2018-May-12 07:31N 29°46' W 094°03'2 3.4
2018-May-12 07:00N 29°45' W 094°04'2 3.8
2018-May-12 06:30N 29°44' W 094°06'2 3.9
2018-May-12 06:00N 29°43' W 094°08'2 3.9
2018-May-12 05:30N 29°42' W 094°09'2 3.1
2018-May-12 04:59N 29°41' W 094°11'2 3.9
2018-May-12 04:31N 29°40' W 094°13'2 4.1
2018-May-12 04:00N 29°39' W 094°15'2 4.1
2018-May-12 03:31N 29°38' W 094°17'2 4.1
2018-May-12 03:01N 29°38' W 094°19'2 3.6
2018-May-12 02:30N 29°37' W 094°21'2 3.8
2018-May-12 01:59N 29°36' W 094°23'2 3.4
2018-May-12 01:30N 29°35' W 094°25'13 3.4
2018-May-11 21:49N 29°29' W 094°37'7 4.9
2018-May-11 20:23N 29°25' W 094°44'2 4.4
2018-May-11 19:58N 29°24' W 094°46'2 5.3
2018-May-11 19:30N 29°22' W 094°48'4 4.9
2018-May-11 18:47N 29°25' W 094°50'1 5.0
2018-May-11 18:30N 29°26' W 094°50'3 5.3
2018-May-11 17:56N 29°29' W 094°52'2 5.8
2018-May-11 17:30N 29°31' W 094°53'3 5.7
2018-May-11 17:00N 29°34' W 094°55'3 5.8
2018-May-11 16:30N 29°36' W 094°57'3 6.1
2018-May-11 16:00N 29°39' W 094°58'3 6.0
2018-May-11 15:30N 29°42' W 094°60'3 5.1
2018-May-11 15:00N 29°44' W 095°01'3 5.5
2018-May-11 14:30N 29°45' W 095°04'2 2.4
2018-May-11 13:45N 29°47' W 095°04'0 1.1
2018-May-11 13:29N 29°47' W 095°04'2 0.4
2018-May-11 07:29N 29°46' W 095°06'0 0.1
2018-May-11 02:55N 29°46' W 095°06'0 0.0
2018-May-11 02:28N 29°46' W 095°06'3 6.1
2018-May-11 02:00N 29°44' W 095°03'4 7.0
2018-May-11 01:29N 29°42' W 095°00'4 7.6
2018-May-11 01:00N 29°39' W 094°58'4 7.8
2018-May-11 00:30N 29°35' W 094°56'4 7.6
2018-May-11 00:00N 29°32' W 094°54'6 7.7
2018-May-10 23:15N 29°27' W 094°51'2 7.8
2018-May-10 22:59N 29°25' W 094°50'4 7.2
2018-May-10 22:29N 29°22' W 094°47'3 6.2
2018-May-10 22:00N 29°24' W 094°45'4 6.5
2018-May-10 21:23N 29°27' W 094°41'7 6.8
2018-May-10 20:20N 29°30' W 094°34'3 6.8
2018-May-10 19:50N 29°31' W 094°30'1 3.7
2018-May-10 19:30N 29°32' W 094°29'2 3.0
2018-May-10 18:43N 29°34' W 094°27'2 7.8
2018-May-10 18:30N 29°34' W 094°25'2 5.0
2018-May-10 18:01N 29°36' W 094°23'3 6.6
2018-May-10 17:30N 29°37' W 094°20'3 6.6
2018-May-10 16:59N 29°39' W 094°16'3 6.7
2018-May-10 16:31N 29°40' W 094°13'3 6.6
2018-May-10 16:00N 29°41' W 094°09'  
Track history (hours):
 
Tides and Currents Weather Stations Pressure Air Temp Water Temp Dewpoint Dewpoint Depression Visibility Wind Speed Wind Dir Waves Ship Positions

M/V Saviour

Owner: Marquette Transportation Company Gulf-Inland, LLC, Jefferson, LA. More information available from US FCC via Universal Licensing System and Coast Guard Vessel Documentation Center.

Last reported at 2018-May-20 15:30 UTC. Time now 2018-May-20 15:29 UTC.
Position N 29°42' W 094°09'.

Length 24 m; draft 2.7 m.

Type: . MMSI: 367151460.

Date/timePositionNaut miles runAvg speedWind from/ knotsBaromVisibWave heightAir tempDewpointWater temp
2018-May-20 15:30N 29°42' W 094°09'2 4.2
2018-May-20 15:00N 29°41' W 094°12'2 4.4
2018-May-20 14:30N 29°40' W 094°14'2 4.4
2018-May-20 14:01N 29°39' W 094°16'2 4.5
2018-May-20 13:29N 29°38' W 094°19'3 4.4
2018-May-20 12:55N 29°37' W 094°21'2 4.5
2018-May-20 12:29N 29°36' W 094°23'2 2.4
2018-May-20 11:43N 29°35' W 094°25'13 3.9
2018-May-20 08:18N 29°28' W 094°38'2 4.9
2018-May-20 07:57N 29°28' W 094°40'6 4.0
2018-May-20 06:27N 29°24' W 094°45'2 3.8
2018-May-20 06:00N 29°23' W 094°47'2 4.0
2018-May-20 05:30N 29°23' W 094°49'3 7.0
2018-May-20 05:00N 29°27' W 094°50'3 6.4
2018-May-20 04:30N 29°29' W 094°52'3 5.9
2018-May-20 04:00N 29°32' W 094°54'3 5.6
2018-May-20 03:30N 29°34' W 094°55'3 5.1
2018-May-20 03:00N 29°36' W 094°57'2 4.9
2018-May-20 02:30N 29°39' W 094°58'3 5.0
2018-May-20 02:00N 29°41' W 094°59'2 4.6
2018-May-20 01:30N 29°42' W 095°01'2 4.0
2018-May-20 00:57N 29°44' W 095°03'2 0.1
2018-May-19 11:43N 29°45' W 095°04'1 6.1
2018-May-19 11:28N 29°44' W 095°03'2 4.8
2018-May-19 11:00N 29°43' W 095°01'3 5.5
2018-May-19 10:30N 29°41' W 094°59'3 5.9
2018-May-19 10:01N 29°38' W 094°58'3 5.8
2018-May-19 09:30N 29°35' W 094°56'3 6.6
2018-May-19 09:00N 29°33' W 094°54'3 6.0
2018-May-19 08:29N 29°30' W 094°52'4 6.3
2018-May-19 07:54N 29°27' W 094°50'2 6.4
2018-May-19 07:31N 29°24' W 094°49'3 5.5
2018-May-19 07:00N 29°22' W 094°47'7 6.5
2018-May-19 05:56N 29°27' W 094°41'3 5.8
2018-May-19 05:27N 29°28' W 094°38'2 5.1
2018-May-19 04:58N 29°29' W 094°36'3 6.3
2018-May-19 04:30N 29°30' W 094°33'4 6.4
2018-May-19 03:51N 29°32' W 094°29'2 4.6
2018-May-19 03:29N 29°34' W 094°27'2 4.5
2018-May-19 02:57N 29°35' W 094°25'1 3.1
2018-May-19 02:30N 29°36' W 094°23'0 0.7
2018-May-19 01:59N 29°36' W 094°23'1 2.1
2018-May-19 01:28N 29°36' W 094°22'1 3.0
2018-May-19 01:00N 29°37' W 094°21'2 3.8
2018-May-19 00:29N 29°38' W 094°19'2 4.4
2018-May-19 00:00N 29°39' W 094°17'2 3.6
2018-May-18 23:31N 29°40' W 094°15'2 3.5
2018-May-18 23:00N 29°40' W 094°13'2 4.7
2018-May-18 22:30N 29°41' W 094°10'3 6.0
2018-May-18 22:00N 29°43' W 094°07'3 5.9
2018-May-18 21:30N 29°45' W 094°05'3 5.9
2018-May-18 21:00N 29°47' W 094°02'3 6.1
2018-May-18 20:31N 29°49' W 093°60'3 6.1
2018-May-18 20:00N 29°51' W 093°57'3 6.0
2018-May-18 19:31N 29°53' W 093°55'3 6.1
2018-May-18 19:00N 29°55' W 093°53'3 6.6
2018-May-18 18:30N 29°58' W 093°51'3 6.2
2018-May-18 18:00N 29°59' W 093°48'1 2.3
2018-May-18 17:30N 29°60' W 093°46'3 6.0
2018-May-18 16:59N 30°02' W 093°44'3 5.5
2018-May-18 16:30N 30°04' W 093°41'3 5.7
2018-May-18 16:01N 30°04' W 093°38'3 6.3
2018-May-18 15:28N 30°04' W 093°34'2 5.1
2018-May-18 15:01N 30°04' W 093°31'3 6.7
2018-May-18 14:30N 30°04' W 093°28'3 6.9
2018-May-18 14:00N 30°04' W 093°24'1 2.6
2018-May-18 13:30N 30°04' W 093°22'0 0.6
2018-May-18 13:01N 30°04' W 093°22'0 0.8
2018-May-18 12:30N 30°04' W 093°22'0 0.8
2018-May-18 12:00N 30°04' W 093°22'0 0.1
2018-May-18 11:30N 30°04' W 093°22'0 0.6
2018-May-18 11:00N 30°04' W 093°22'0 0.6
2018-May-18 10:30N 30°04' W 093°22'1 2.2
2018-May-18 10:00N 30°04' W 093°21'2 3.4
2018-May-18 09:31N 30°06' W 093°19'1 2.8
2018-May-18 09:00N 30°05' W 093°18'1 1.1
2018-May-18 08:31N 30°05' W 093°17'1 2.7
2018-May-18 08:01N 30°04' W 093°16'0 0.0
2018-May-18 07:31N 30°04' W 093°16'0 0.0
2018-May-18 07:00N 30°04' W 093°16'0 0.0
2018-May-18 06:30N 30°04' W 093°16'0 0.0
2018-May-18 06:00N 30°04' W 093°16'0 0.0
2018-May-18 05:30N 30°04' W 093°16'1 1.4
2018-May-18 05:00N 30°04' W 093°16'1 2.8
2018-May-18 04:31N 30°02' W 093°15'2 3.4
2018-May-18 04:00N 30°01' W 093°14'2 3.5
2018-May-18 03:28N 29°59' W 093°13'0 0.4
2018-May-18 03:00N 29°59' W 093°13'2 3.6
2018-May-18 02:30N 29°58' W 093°11'2 4.2
2018-May-18 02:00N 29°56' W 093°10'2 4.1
2018-May-18 01:29N 29°56' W 093°07'2 4.1
2018-May-18 01:00N 29°56' W 093°05'2 4.3
2018-May-18 00:30N 29°56' W 093°03'54 3.8
2018-May-17 10:19N 29°50' W 092°00'2 4.4
2018-May-17 09:47N 29°50' W 091°58'7 3.9
2018-May-17 07:56N 29°49' W 091°50'2 4.4
2018-May-17 07:29N 29°47' W 091°49'3 3.7
2018-May-17 06:41N 29°46' W 091°46'10 4.5
2018-May-17 04:26N 29°45' W 091°35'  
2018-May-14 09:18N 29°40' W 091°26'1 2.7
2018-May-14 09:00N 29°40' W 091°27'3 2.6
2018-May-14 07:52N 29°41' W 091°30'1 2.9
2018-May-14 07:23N 29°42' W 091°31'1 2.5
2018-May-14 07:01N 29°43' W 091°32'79 2.9
2018-May-13 03:49N 29°56' W 093°02'1 4.0
2018-May-13 03:30N 29°56' W 093°03'2 3.9
2018-May-13 03:00N 29°56' W 093°05'2 3.7
2018-May-13 02:30N 29°56' W 093°08'2 3.8
2018-May-13 02:00N 29°56' W 093°10'2 3.9
2018-May-13 01:30N 29°58' W 093°11'2 3.9
2018-May-13 01:00N 29°59' W 093°13'2 3.6
2018-May-13 00:30N 30°01' W 093°14'2 3.6
2018-May-13 00:00N 30°02' W 093°15'2 3.6
2018-May-12 23:30N 30°04' W 093°16'2 4.0
2018-May-12 23:00N 30°05' W 093°18'1 1.1
2018-May-12 22:30N 30°06' W 093°18'1 2.0
2018-May-12 22:00N 30°06' W 093°19'2 3.5
2018-May-12 21:30N 30°04' W 093°20'1 2.1
2018-May-12 21:01N 30°04' W 093°21'0 0.1
2018-May-12 20:30N 30°04' W 093°21'0 0.0
2018-May-12 20:01N 30°04' W 093°21'0 0.0
2018-May-12 19:30N 30°04' W 093°21'0 0.0
2018-May-12 19:01N 30°04' W 093°21'0 0.0
2018-May-12 18:30N 30°04' W 093°21'0 0.0
2018-May-12 18:01N 30°04' W 093°21'0 0.0
2018-May-12 17:30N 30°04' W 093°21'0 0.3
2018-May-12 17:01N 30°04' W 093°21'2 3.9
2018-May-12 16:30N 30°04' W 093°24'2 3.9
2018-May-12 16:00N 30°04' W 093°26'2 3.5
2018-May-12 15:31N 30°04' W 093°28'2 3.5
2018-May-12 15:00N 30°04' W 093°30'2 3.8
2018-May-12 14:30N 30°04' W 093°32'2 3.5
2018-May-12 13:58N 30°04' W 093°34'2 4.1
2018-May-12 13:29N 30°04' W 093°37'2 5.0
2018-May-12 13:00N 30°04' W 093°39'3 5.1
2018-May-12 12:30N 30°03' W 093°42'2 4.8
2018-May-12 12:00N 30°02' W 093°44'3 5.5
2018-May-12 11:31N 29°60' W 093°47'3 5.7
2018-May-12 11:00N 29°59' W 093°50'2 4.7
2018-May-12 10:30N 29°57' W 093°52'3 5.7
2018-May-12 10:01N 29°55' W 093°53'3 5.8
2018-May-12 09:30N 29°53' W 093°56'3 5.7
2018-May-12 09:00N 29°50' W 093°57'2 4.2
2018-May-12 08:30N 29°49' W 093°59'2 4.1
2018-May-12 08:01N 29°47' W 094°01'2 3.9
2018-May-12 07:31N 29°46' W 094°03'2 3.4
2018-May-12 07:00N 29°45' W 094°04'2 3.8
2018-May-12 06:30N 29°44' W 094°06'2 3.9
2018-May-12 06:00N 29°43' W 094°08'2 3.9
2018-May-12 05:30N 29°42' W 094°09'2 3.1
2018-May-12 04:59N 29°41' W 094°11'2 3.9
2018-May-12 04:31N 29°40' W 094°13'2 4.1
2018-May-12 04:00N 29°39' W 094°15'2 4.1
2018-May-12 03:31N 29°38' W 094°17'2 4.1
2018-May-12 03:01N 29°38' W 094°19'2 3.6
2018-May-12 02:30N 29°37' W 094°21'2 3.8
2018-May-12 01:59N 29°36' W 094°23'2 3.4
2018-May-12 01:30N 29°35' W 094°25'13 3.4
2018-May-11 21:49N 29°29' W 094°37'7 4.9
2018-May-11 20:23N 29°25' W 094°44'2 4.4
2018-May-11 19:58N 29°24' W 094°46'2 5.3
2018-May-11 19:30N 29°22' W 094°48'4 4.9
2018-May-11 18:47N 29°25' W 094°50'1 5.0
2018-May-11 18:30N 29°26' W 094°50'3 5.3
2018-May-11 17:56N 29°29' W 094°52'2 5.8
2018-May-11 17:30N 29°31' W 094°53'3 5.7
2018-May-11 17:00N 29°34' W 094°55'3 5.8
2018-May-11 16:30N 29°36' W 094°57'3 6.1
2018-May-11 16:00N 29°39' W 094°58'3 6.0
2018-May-11 15:30N 29°42' W 094°60'3 5.1
2018-May-11 15:00N 29°44' W 095°01'3 5.5
2018-May-11 14:30N 29°45' W 095°04'2 2.4
2018-May-11 13:45N 29°47' W 095°04'0 1.1
2018-May-11 13:29N 29°47' W 095°04'2 0.4
2018-May-11 07:29N 29°46' W 095°06'0 0.1
2018-May-11 02:55N 29°46' W 095°06'0 0.0
2018-May-11 02:28N 29°46' W 095°06'3 6.1
2018-May-11 02:00N 29°44' W 095°03'4 7.0
2018-May-11 01:29N 29°42' W 095°00'4 7.6
2018-May-11 01:00N 29°39' W 094°58'4 7.8
2018-May-11 00:30N 29°35' W 094°56'4 7.6
2018-May-11 00:00N 29°32' W 094°54'6 7.7
2018-May-10 23:15N 29°27' W 094°51'2 7.8
2018-May-10 22:59N 29°25' W 094°50'4 7.2
2018-May-10 22:29N 29°22' W 094°47'3 6.2
2018-May-10 22:00N 29°24' W 094°45'4 6.5
2018-May-10 21:23N 29°27' W 094°41'7 6.8
2018-May-10 20:20N 29°30' W 094°34'3 6.8
2018-May-10 19:50N 29°31' W 094°30'1 3.7
2018-May-10 19:30N 29°32' W 094°29'2 3.0
2018-May-10 18:43N 29°34' W 094°27'2 7.8
2018-May-10 18:30N 29°34' W 094°25'2 5.0
2018-May-10 18:01N 29°36' W 094°23'3 6.6
2018-May-10 17:30N 29°37' W 094°20'3 6.6
2018-May-10 16:59N 29°39' W 094°16'3 6.7
2018-May-10 16:31N 29°40' W 094°13'3 6.6
2018-May-10 16:00N 29°41' W 094°09'  

Dump ship's entire track history